createdAt,value
2022-09-30T00:01:30.071Z,100.00
2022-09-30T00:03:57.912Z,100.00
2022-09-30T00:06:26.054Z,100.00
2022-09-30T00:08:53.644Z,100.00
2022-09-30T00:11:29.407Z,100.00
2022-09-30T00:13:58.422Z,100.00
2022-09-30T00:16:27.709Z,100.00
2022-09-30T00:18:56.861Z,100.00
2022-09-30T00:21:25.442Z,100.00
2022-09-30T00:23:52.602Z,100.00
2022-09-30T00:26:23.403Z,100.00
2022-09-30T00:28:52.940Z,100.00
2022-09-30T00:31:21.797Z,100.00
2022-09-30T00:34:08.295Z,100.00
2022-09-30T00:36:40.910Z,100.00
2022-09-30T00:39:09.512Z,100.00
2022-09-30T00:41:37.756Z,100.00
2022-09-30T00:44:43.575Z,100.00
2022-09-30T00:47:37.020Z,100.00
2022-09-30T00:50:13.944Z,100.00
2022-09-30T00:52:43.839Z,100.00
2022-09-30T00:55:24.688Z,100.00
2022-09-30T00:57:51.888Z,100.00
2022-09-30T01:00:19.311Z,100.00
2022-09-30T01:02:47.962Z,100.00
2022-09-30T01:05:15.308Z,100.00
2022-09-30T01:07:42.509Z,100.00
2022-09-30T01:10:09.628Z,100.00
2022-09-30T01:12:37.008Z,100.00
2022-09-30T01:15:05.285Z,100.00
2022-09-30T01:17:59.918Z,100.00
2022-09-30T01:20:27.609Z,100.00
2022-09-30T01:23:16.548Z,100.00
2022-09-30T01:30:15.780Z,100.00
2022-09-30T01:33:37.435Z,100.00
2022-09-30T01:36:22.984Z,100.00
2022-09-30T01:39:06.759Z,100.00
2022-09-30T01:42:08.476Z,100.00
2022-09-30T01:45:07.958Z,100.00
2022-09-30T01:48:00.843Z,100.00
2022-09-30T01:51:09.555Z,100.00
2022-09-30T01:57:57.988Z,100.00
2022-09-30T02:00:35.251Z,100.00
2022-09-30T02:03:09.589Z,100.00
2022-09-30T02:06:04.579Z,100.00
2022-09-30T02:08:41.687Z,100.00
2022-09-30T02:11:25.505Z,100.00
2022-09-30T02:14:16.289Z,100.00
2022-09-30T02:16:53.656Z,100.00
2022-09-30T02:19:29.860Z,100.00
2022-09-30T02:22:02.636Z,100.00
2022-09-30T02:24:37.257Z,100.00
2022-09-30T02:27:08.564Z,100.00
2022-09-30T02:29:40.335Z,100.00
2022-09-30T02:32:18.784Z,100.00
2022-09-30T02:34:57.302Z,100.00
2022-09-30T02:37:30.427Z,100.00
2022-09-30T02:40:08.243Z,100.00
2022-09-30T02:42:35.404Z,100.00
2022-09-30T02:45:08.895Z,100.00
2022-09-30T02:48:04.345Z,100.00
2022-09-30T02:50:44.691Z,100.00
2022-09-30T02:53:26.722Z,100.00
2022-09-30T02:56:15.686Z,100.00
2022-09-30T02:58:43.874Z,100.00
2022-09-30T03:01:14.535Z,100.00
2022-09-30T03:03:44.507Z,100.00
2022-09-30T03:06:15.015Z,100.00
2022-09-30T03:08:42.425Z,100.00
2022-09-30T03:11:24.937Z,100.00
2022-09-30T03:14:03.370Z,100.00
2022-09-30T03:16:39.489Z,100.00
2022-09-30T03:19:38.649Z,100.00
2022-09-30T03:22:30.735Z,100.00
2022-09-30T03:25:15.786Z,100.00
2022-09-30T03:28:21.336Z,100.00
2022-09-30T03:31:24.101Z,100.00
2022-09-30T03:34:10.806Z,100.00
2022-09-30T03:36:47.143Z,100.00
2022-09-30T03:39:26.685Z,100.00
2022-09-30T03:42:02.327Z,100.00
2022-09-30T03:44:59.152Z,100.00
2022-09-30T03:47:30.256Z,100.00
2022-09-30T03:50:01.807Z,100.00
2022-09-30T03:52:32.582Z,100.00
2022-09-30T03:55:03.142Z,100.00
2022-09-30T03:57:31.027Z,100.00
2022-09-30T03:59:57.916Z,100.00
2022-09-30T04:02:26.204Z,100.00
2022-09-30T04:04:53.340Z,100.00
2022-09-30T04:07:21.252Z,100.00
2022-09-30T04:09:48.371Z,100.00
2022-09-30T04:12:15.494Z,100.00
2022-09-30T04:14:42.482Z,100.00
2022-09-30T04:17:09.417Z,100.00
2022-09-30T04:19:40.477Z,100.00
2022-09-30T04:22:08.583Z,100.00
2022-09-30T04:24:36.424Z,100.00
2022-09-30T04:27:03.551Z,100.00
2022-09-30T04:29:30.773Z,100.00
2022-09-30T04:31:58.259Z,100.00
2022-09-30T04:34:25.324Z,100.00
2022-09-30T04:36:52.283Z,100.00
2022-09-30T04:39:19.289Z,100.00
2022-09-30T04:41:46.547Z,100.00
2022-09-30T04:44:13.742Z,100.00
2022-09-30T04:46:40.729Z,100.00
2022-09-30T04:49:09.619Z,100.00
2022-09-30T04:51:38.597Z,100.00
2022-09-30T04:54:05.692Z,100.00
2022-09-30T04:56:33.256Z,100.00
2022-09-30T04:59:00.595Z,100.00
2022-09-30T05:01:27.635Z,100.00
2022-09-30T05:03:55.072Z,100.00
2022-09-30T05:06:22.272Z,100.00
2022-09-30T05:08:49.353Z,100.00
2022-09-30T05:11:20.973Z,100.00
2022-09-30T05:13:51.500Z,100.00
2022-09-30T05:16:19.775Z,100.00
2022-09-30T05:18:47.312Z,100.00
2022-09-30T05:21:16.437Z,100.00
2022-09-30T05:23:43.548Z,100.00
2022-09-30T05:26:12.442Z,100.00
2022-09-30T05:28:41.149Z,100.00
2022-09-30T05:31:08.666Z,100.00
2022-09-30T05:33:36.298Z,100.00
2022-09-30T05:36:06.681Z,100.00
2022-09-30T05:38:34.128Z,100.00
2022-09-30T05:41:15.487Z,100.00
2022-09-30T05:43:48.158Z,100.00
2022-09-30T05:46:16.941Z,100.00
2022-09-30T05:48:44.821Z,100.00
2022-09-30T05:51:11.595Z,100.00
2022-09-30T05:53:39.375Z,100.00
2022-09-30T05:56:07.870Z,100.00
2022-09-30T05:58:35.833Z,100.00
2022-09-30T06:01:13.057Z,100.00
2022-09-30T06:03:40.951Z,100.00
2022-09-30T06:06:08.533Z,100.00
2022-09-30T06:08:35.880Z,100.00
2022-09-30T06:11:10.587Z,100.00
2022-09-30T06:13:38.499Z,100.00
2022-09-30T06:16:06.464Z,100.00
2022-09-30T06:18:33.781Z,97.71
2022-09-30T06:21:05.682Z,92.34
2022-09-30T06:23:35.455Z,92.76
2022-09-30T06:26:05.043Z,90.60
2022-09-30T06:28:35.598Z,89.39
2022-09-30T06:31:04.280Z,85.60
2022-09-30T06:33:32.560Z,84.26
2022-09-30T06:36:02.509Z,83.83
2022-09-30T06:38:29.796Z,83.02
2022-09-30T06:41:00.084Z,82.35
2022-09-30T06:43:27.291Z,80.02
2022-09-30T06:46:05.461Z,81.89
2022-09-30T06:48:41.026Z,78.72
2022-09-30T06:51:11.121Z,78.66
2022-09-30T06:53:40.135Z,76.53
2022-09-30T06:56:07.156Z,74.34
2022-09-30T06:58:34.205Z,74.29
2022-09-30T07:01:04.306Z,74.72
2022-09-30T07:03:35.204Z,71.63
2022-09-30T07:06:26.290Z,72.04
2022-09-30T07:08:54.461Z,69.75
2022-09-30T07:11:22.217Z,68.44
2022-09-30T07:13:49.882Z,68.34
2022-09-30T07:16:18.079Z,67.46
2022-09-30T07:18:46.065Z,66.96
2022-09-30T07:21:16.411Z,66.44
2022-09-30T07:23:48.475Z,67.40
2022-09-30T07:26:24.793Z,66.45
2022-09-30T07:28:52.305Z,64.21
2022-09-30T07:31:37.433Z,62.45
2022-09-30T07:34:09.063Z,63.05
2022-09-30T07:36:38.355Z,60.91
2022-09-30T07:39:09.199Z,60.30
2022-09-30T07:41:39.169Z,59.83
2022-09-30T07:44:14.833Z,57.60
2022-09-30T07:46:43.402Z,58.75
2022-09-30T07:49:15.096Z,57.36
2022-09-30T07:51:46.751Z,57.36
2022-09-30T07:54:16.365Z,57.24
2022-09-30T07:57:09.164Z,56.05
2022-09-30T07:59:35.494Z,55.16
2022-09-30T08:02:02.577Z,53.42
2022-09-30T08:04:30.350Z,53.87
2022-09-30T08:07:00.198Z,51.11
2022-09-30T08:09:30.105Z,51.52
2022-09-30T08:11:57.443Z,51.23
2022-09-30T08:14:26.841Z,49.41
2022-09-30T08:16:55.999Z,49.13
2022-09-30T08:19:24.853Z,49.54
2022-09-30T08:21:54.184Z,47.80
2022-09-30T08:24:22.389Z,49.18
2022-09-30T08:26:49.569Z,47.87
2022-09-30T08:29:20.723Z,46.26
2022-09-30T08:31:52.856Z,45.89
2022-09-30T08:34:20.139Z,45.17
2022-09-30T08:36:47.090Z,44.49
2022-09-30T08:39:14.307Z,44.78
2022-09-30T08:42:35.478Z,43.71
2022-09-30T08:45:31.942Z,44.29
2022-09-30T08:51:13.527Z,43.03
2022-09-30T08:53:44.077Z,42.90
2022-09-30T08:56:24.957Z,43.16
2022-09-30T08:58:57.269Z,42.74
2022-09-30T09:01:38.823Z,42.33
2022-09-30T09:04:08.134Z,40.72
2022-09-30T09:07:05.302Z,41.54
2022-09-30T09:09:38.957Z,41.01
2022-09-30T09:12:26.626Z,39.46
2022-09-30T09:14:53.568Z,39.56
2022-09-30T09:17:44.462Z,39.49
2022-09-30T09:20:22.086Z,38.29
2022-09-30T09:22:51.457Z,38.79
2022-09-30T09:25:25.880Z,38.18
2022-09-30T09:28:06.210Z,37.93
2022-09-30T09:30:43.408Z,38.37
2022-09-30T09:33:21.965Z,38.84
2022-09-30T09:36:01.848Z,38.30
2022-09-30T09:38:47.024Z,37.32
2022-09-30T09:41:38.432Z,36.46
2022-09-30T09:44:24.739Z,37.29
2022-09-30T09:47:05.297Z,35.64
2022-09-30T09:49:41.752Z,36.74
2022-09-30T09:52:14.665Z,35.37
2022-09-30T09:54:48.189Z,37.31
2022-09-30T09:57:26.032Z,36.24
2022-09-30T10:02:32.842Z,37.15
2022-09-30T10:05:04.301Z,36.35
2022-09-30T10:07:33.803Z,37.19
2022-09-30T10:10:23.471Z,35.77
2022-09-30T10:12:51.241Z,36.10
2022-09-30T10:15:21.506Z,36.36
2022-09-30T10:17:57.697Z,35.26
2022-09-30T10:20:33.539Z,37.40
2022-09-30T10:23:18.767Z,36.64
2022-09-30T10:26:15.272Z,37.82
2022-09-30T10:29:02.615Z,37.03
2022-09-30T10:31:31.906Z,37.31
2022-09-30T10:34:32.449Z,37.47
2022-09-30T10:37:02.879Z,37.58
2022-09-30T10:39:34.734Z,37.08
2022-09-30T10:42:07.785Z,36.83
2022-09-30T10:44:50.089Z,37.70
2022-09-30T10:47:20.615Z,37.38
2022-09-30T10:49:55.294Z,37.73
2022-09-30T10:52:29.986Z,37.13
2022-09-30T10:55:10.668Z,37.84
2022-09-30T10:57:41.154Z,35.94
2022-09-30T11:00:14.433Z,36.49
2022-09-30T11:03:04.343Z,36.29
2022-09-30T11:05:35.494Z,36.18
2022-09-30T11:08:23.590Z,36.89
2022-09-30T11:11:08.847Z,36.87
2022-09-30T11:14:00.848Z,36.80
2022-09-30T11:16:56.692Z,37.37
2022-09-30T11:19:41.497Z,36.50
2022-09-30T11:22:29.850Z,36.02
2022-09-30T11:24:57.776Z,37.43
2022-09-30T11:27:42.797Z,37.46
2022-09-30T11:30:33.263Z,37.23
2022-09-30T11:33:29.069Z,38.70
2022-09-30T11:36:01.749Z,37.03
2022-09-30T11:38:50.375Z,37.07
2022-09-30T11:41:31.264Z,36.61
2022-09-30T11:44:17.620Z,36.75
2022-09-30T11:47:08.074Z,36.92
2022-09-30T11:50:12.078Z,36.85
2022-09-30T11:52:57.549Z,37.29
2022-09-30T11:55:55.067Z,36.93
2022-09-30T11:58:41.012Z,35.61
2022-09-30T12:01:33.553Z,37.14
2022-09-30T12:04:06.811Z,37.15
2022-09-30T12:06:38.117Z,36.91
2022-09-30T12:09:37.484Z,36.99
2022-09-30T12:12:15.319Z,36.30
2022-09-30T12:14:55.728Z,36.31
2022-09-30T12:18:06.962Z,35.55
2022-09-30T12:20:58.450Z,36.35
2022-09-30T12:23:35.926Z,36.18
2022-09-30T12:26:04.988Z,35.57
2022-09-30T12:29:03.680Z,36.03
2022-09-30T12:31:56.727Z,37.33
2022-09-30T12:34:53.697Z,35.51
2022-09-30T12:37:41.891Z,36.61
2022-09-30T12:40:25.219Z,35.51
2022-09-30T12:43:04.341Z,34.85
2022-09-30T12:45:34.200Z,36.50
2022-09-30T12:48:06.862Z,39.20
2022-09-30T12:50:42.167Z,36.53
2022-09-30T12:53:33.525Z,36.96
2022-09-30T12:56:16.188Z,37.02
2022-09-30T12:58:50.006Z,35.31
2022-09-30T13:01:28.609Z,36.37
2022-09-30T13:04:01.115Z,37.14
2022-09-30T13:06:48.160Z,35.75
2022-09-30T13:09:20.143Z,36.87
2022-09-30T13:11:48.839Z,36.51
2022-09-30T13:14:43.425Z,36.52
2022-09-30T13:17:13.798Z,36.79
2022-09-30T13:19:52.078Z,36.33
2022-09-30T13:22:22.932Z,37.28
2022-09-30T13:25:03.395Z,38.38
2022-09-30T13:27:54.112Z,39.02
2022-09-30T13:30:21.309Z,36.84
2022-09-30T13:33:06.282Z,36.28
2022-09-30T13:35:50.329Z,37.06
2022-09-30T13:38:20.471Z,36.60
2022-09-30T13:41:16.061Z,36.54
2022-09-30T13:43:46.697Z,36.68
2022-09-30T13:46:30.041Z,35.48
2022-09-30T13:49:02.876Z,36.71
2022-09-30T13:51:33.567Z,36.27
2022-09-30T13:54:08.908Z,35.97
2022-09-30T13:56:40.885Z,37.40
2022-09-30T13:59:32.425Z,36.59
2022-09-30T14:02:27.732Z,36.50
2022-09-30T14:05:16.122Z,36.08
2022-09-30T14:08:01.672Z,36.07
2022-09-30T14:11:01.229Z,37.28
2022-09-30T14:13:54.872Z,37.90
2022-09-30T14:17:01.171Z,37.81
2022-09-30T14:19:50.627Z,36.58
2022-09-30T14:22:19.681Z,38.03
2022-09-30T14:24:46.819Z,39.04
2022-09-30T14:27:41.762Z,41.54
2022-09-30T14:30:15.434Z,42.60
2022-09-30T14:32:50.550Z,39.60
2022-09-30T14:35:33.662Z,39.59
2022-09-30T14:38:08.783Z,39.76
2022-09-30T14:40:42.936Z,41.30
2022-09-30T14:43:18.428Z,43.74
2022-09-30T14:45:52.217Z,46.50
2022-09-30T14:48:23.106Z,44.32
2022-09-30T14:51:06.128Z,46.24
2022-09-30T14:53:35.982Z,47.38
2022-09-30T14:56:05.459Z,47.88
2022-09-30T14:58:42.502Z,49.06
2022-09-30T15:01:17.945Z,49.39
2022-09-30T15:03:53.553Z,50.36
2022-09-30T15:06:27.697Z,52.21
2022-09-30T15:09:08.687Z,53.15
2022-09-30T15:11:39.517Z,54.71
2022-09-30T15:14:14.315Z,55.75
2022-09-30T15:16:55.617Z,57.32
2022-09-30T15:19:34.199Z,58.18
2022-09-30T15:22:14.803Z,58.53
2022-09-30T15:24:42.802Z,59.86
2022-09-30T15:27:20.880Z,60.88
2022-09-30T15:29:58.482Z,62.41
2022-09-30T15:32:28.607Z,63.18
2022-09-30T15:34:58.715Z,63.44
2022-09-30T15:37:33.974Z,65.13
2022-09-30T15:40:20.891Z,65.56
2022-09-30T15:42:57.279Z,67.02
2022-09-30T15:45:34.564Z,68.42
2022-09-30T15:48:06.480Z,69.09
2022-09-30T15:50:42.324Z,70.22
2022-09-30T15:53:22.674Z,71.00
2022-09-30T15:55:57.120Z,71.41
2022-09-30T15:58:26.849Z,71.65
2022-09-30T16:00:55.465Z,73.47
2022-09-30T16:03:27.320Z,73.21
2022-09-30T16:06:06.207Z,73.51
2022-09-30T16:08:42.981Z,74.22
2022-09-30T16:11:10.538Z,74.61
2022-09-30T16:13:39.001Z,75.08
2022-09-30T16:16:20.592Z,75.64
2022-09-30T16:18:48.976Z,76.46
2022-09-30T16:21:46.468Z,77.15
2022-09-30T16:24:28.750Z,77.21
2022-09-30T16:26:58.156Z,78.04
2022-09-30T16:29:27.044Z,78.25
2022-09-30T16:31:56.026Z,78.60
2022-09-30T16:34:25.554Z,79.18
2022-09-30T16:36:55.678Z,79.84
2022-09-30T16:39:22.670Z,79.84
2022-09-30T16:41:50.970Z,80.61
2022-09-30T16:44:18.052Z,79.98
2022-09-30T16:46:45.169Z,80.96
2022-09-30T16:49:15.842Z,81.43
2022-09-30T16:51:43.360Z,81.43
2022-09-30T16:54:11.510Z,80.29
2022-09-30T16:56:39.255Z,81.17
2022-09-30T16:59:16.683Z,81.78
2022-09-30T17:01:44.202Z,83.03
2022-09-30T17:04:14.131Z,83.88
2022-09-30T17:06:44.467Z,84.30
2022-09-30T17:09:11.442Z,83.87
2022-09-30T17:11:38.587Z,84.57
2022-09-30T17:14:06.279Z,85.08
2022-09-30T17:16:34.371Z,85.51
2022-09-30T17:19:01.744Z,85.19
2022-09-30T17:21:28.916Z,85.83
2022-09-30T17:23:56.303Z,85.98
2022-09-30T17:26:23.524Z,86.27
2022-09-30T17:28:50.572Z,86.06
2022-09-30T17:31:17.769Z,86.58
2022-09-30T17:33:44.935Z,86.19
2022-09-30T17:36:13.568Z,86.94
2022-09-30T17:38:40.675Z,86.88
2022-09-30T17:41:29.129Z,87.24
2022-09-30T17:43:57.863Z,87.52
2022-09-30T17:46:25.734Z,88.11
2022-09-30T17:48:56.137Z,88.24
2022-09-30T17:51:23.889Z,88.51
2022-09-30T17:53:50.680Z,89.11
2022-09-30T17:56:20.357Z,88.81
2022-09-30T17:58:50.799Z,89.72
2022-09-30T18:01:20.756Z,88.95
2022-09-30T18:03:48.271Z,89.74
2022-09-30T18:06:15.450Z,90.04
2022-09-30T18:08:42.868Z,90.64
2022-09-30T18:11:10.542Z,90.49
2022-09-30T18:13:37.735Z,91.11
2022-09-30T18:16:08.274Z,91.57
2022-09-30T18:18:38.638Z,91.02
2022-09-30T18:21:05.976Z,91.08
2022-09-30T18:23:33.177Z,91.53
2022-09-30T18:26:00.333Z,92.46
2022-09-30T18:28:28.523Z,92.43
2022-09-30T18:30:55.978Z,92.53
2022-09-30T18:33:23.721Z,92.46
2022-09-30T18:35:51.693Z,91.75
2022-09-30T18:38:19.006Z,92.25
2022-09-30T18:40:46.349Z,92.81
2022-09-30T18:43:17.596Z,92.87
2022-09-30T18:45:56.744Z,93.50
2022-09-30T18:48:26.439Z,93.09
2022-09-30T18:50:54.127Z,93.42
2022-09-30T18:53:22.310Z,93.75
2022-09-30T18:55:49.452Z,93.88
2022-09-30T18:58:17.519Z,93.52
2022-09-30T19:00:44.895Z,92.96
2022-09-30T19:03:14.275Z,93.28
2022-09-30T19:05:41.730Z,93.69
2022-09-30T19:08:09.647Z,94.02
2022-09-30T19:10:41.644Z,93.76
2022-09-30T19:13:09.591Z,94.15
2022-09-30T19:15:39.854Z,94.95
2022-09-30T19:18:07.058Z,94.29
2022-09-30T19:20:38.106Z,94.75
2022-09-30T19:23:08.534Z,95.09
2022-09-30T19:25:35.558Z,95.65
2022-09-30T19:28:02.809Z,95.91
2022-09-30T19:30:29.767Z,96.05
2022-09-30T19:32:59.461Z,95.60
2022-09-30T19:35:38.856Z,95.32
2022-09-30T19:38:07.437Z,95.07
2022-09-30T19:40:34.511Z,95.01
2022-09-30T19:43:02.335Z,94.76
2022-09-30T19:45:29.517Z,95.12
2022-09-30T19:47:58.805Z,95.51
2022-09-30T19:50:26.078Z,95.46
2022-09-30T19:52:57.459Z,96.19
2022-09-30T19:55:25.972Z,96.38
2022-09-30T19:57:53.055Z,96.64
2022-09-30T20:00:20.044Z,98.07
2022-09-30T20:02:47.056Z,98.68
2022-09-30T20:05:14.114Z,98.74
2022-09-30T20:07:41.280Z,98.75
2022-09-30T20:10:08.897Z,98.40
2022-09-30T20:12:36.025Z,98.04
2022-09-30T20:15:21.494Z,98.22
2022-09-30T20:17:48.494Z,97.92
2022-09-30T20:20:34.488Z,97.54
2022-09-30T20:23:01.780Z,97.46
2022-09-30T20:25:30.173Z,97.11
2022-09-30T20:27:57.483Z,97.76
2022-09-30T20:30:25.362Z,97.34
2022-09-30T20:32:53.504Z,97.02
2022-09-30T20:35:22.077Z,97.74
2022-09-30T20:37:49.396Z,97.45
2022-09-30T20:40:16.440Z,97.58
2022-09-30T20:42:43.503Z,96.95
2022-09-30T20:45:12.028Z,96.29
2022-09-30T20:47:43.122Z,97.36
2022-09-30T20:50:13.295Z,98.53
2022-09-30T20:52:40.404Z,98.67
2022-09-30T20:55:08.357Z,99.42
2022-09-30T20:57:35.356Z,99.34
2022-09-30T21:00:02.500Z,99.18
2022-09-30T21:02:29.760Z,99.58
2022-09-30T21:04:59.987Z,99.46
2022-09-30T21:07:27.504Z,99.46
2022-09-30T21:09:54.658Z,98.86
2022-09-30T21:12:23.351Z,98.80
2022-09-30T21:14:50.608Z,98.52
2022-09-30T21:17:17.622Z,98.07
2022-09-30T21:19:44.825Z,98.79
2022-09-30T21:22:11.759Z,99.28
2022-09-30T21:24:38.753Z,99.28
2022-09-30T21:27:06.352Z,99.77
2022-09-30T21:29:33.846Z,99.98
2022-09-30T21:32:01.300Z,99.92
2022-09-30T21:34:28.735Z,99.66
2022-09-30T21:36:55.879Z,99.95
2022-09-30T21:39:23.019Z,99.62
2022-09-30T21:41:49.990Z,100.00
2022-09-30T21:44:17.181Z,100.00
2022-09-30T21:46:48.172Z,99.88
2022-09-30T21:49:18.940Z,99.71
2022-09-30T21:51:47.065Z,100.00
2022-09-30T21:54:14.751Z,99.91
2022-09-30T21:56:43.170Z,100.00
2022-09-30T21:59:11.760Z,99.86
2022-09-30T22:01:39.665Z,100.00
2022-09-30T22:04:07.740Z,100.00
2022-09-30T22:06:35.044Z,99.89
2022-09-30T22:09:02.479Z,100.00
2022-09-30T22:11:31.542Z,100.00
2022-09-30T22:14:00.161Z,99.19
2022-09-30T22:16:35.284Z,100.00
2022-09-30T22:19:05.284Z,100.00
2022-09-30T22:21:34.913Z,100.00
2022-09-30T22:24:04.065Z,100.00
2022-09-30T22:26:32.142Z,100.00
2022-09-30T22:29:02.133Z,100.00
2022-09-30T22:31:32.024Z,100.00
2022-09-30T22:34:20.534Z,100.00
2022-09-30T22:37:06.217Z,99.83
2022-09-30T22:39:33.484Z,100.00
2022-09-30T22:42:00.968Z,100.00
2022-09-30T22:44:39.443Z,100.00
2022-09-30T22:47:09.463Z,100.00
2022-09-30T22:49:36.534Z,100.00
2022-09-30T22:52:03.891Z,100.00
2022-09-30T22:54:31.403Z,100.00
2022-09-30T22:56:59.638Z,100.00
2022-09-30T22:59:28.146Z,100.00
2022-09-30T23:01:56.384Z,100.00
2022-09-30T23:04:26.347Z,100.00
2022-09-30T23:06:55.694Z,100.00
2022-09-30T23:09:22.729Z,100.00
2022-09-30T23:11:53.956Z,100.00
2022-09-30T23:14:22.137Z,100.00
2022-09-30T23:16:49.845Z,100.00
2022-09-30T23:19:17.312Z,100.00
2022-09-30T23:21:44.540Z,100.00
2022-09-30T23:24:12.421Z,100.00
2022-09-30T23:26:39.921Z,100.00
2022-09-30T23:29:10.743Z,100.00
2022-09-30T23:31:38.418Z,100.00
2022-09-30T23:34:06.258Z,100.00
2022-09-30T23:36:38.308Z,100.00
2022-09-30T23:39:12.850Z,100.00
2022-09-30T23:41:40.677Z,100.00
2022-09-30T23:44:09.865Z,100.00
2022-09-30T23:46:37.207Z,100.00
2022-09-30T23:49:04.253Z,100.00
2022-09-30T23:51:33.806Z,100.00
2022-09-30T23:54:02.542Z,100.00
2022-09-30T23:56:29.555Z,100.00
2022-09-30T23:58:57.751Z,100.00
